sensor_id;sensor_type;location;lat;lon;timestamp;P1;durP1;ratioP1;P2;durP2;ratioP2
32445;SDS011;18899;50.748;7.102;2024-02-28T00:02:02;87.53;;;38.65;;
32445;SDS011;18899;50.748;7.102;2024-02-28T00:04:27;93.97;;;37.83;;
32445;SDS011;18899;50.748;7.102;2024-02-28T00:06:53;90.90;;;39.90;;
32445;SDS011;18899;50.748;7.102;2024-02-28T00:09:18;95.70;;;40.65;;
32445;SDS011;18899;50.748;7.102;2024-02-28T00:11:44;94.63;;;38.35;;
32445;SDS011;18899;50.748;7.102;2024-02-28T00:14:11;88.95;;;37.30;;
32445;SDS011;18899;50.748;7.102;2024-02-28T00:16:39;92.13;;;37.85;;
32445;SDS011;18899;50.748;7.102;2024-02-28T00:19:06;84.30;;;37.15;;
32445;SDS011;18899;50.748;7.102;2024-02-28T00:21:32;91.35;;;38.58;;
32445;SDS011;18899;50.748;7.102;2024-02-28T00:23:57;87.90;;;38.33;;
32445;SDS011;18899;50.748;7.102;2024-02-28T00:26:23;86.05;;;37.38;;
32445;SDS011;18899;50.748;7.102;2024-02-28T00:28:48;87.65;;;38.25;;
32445;SDS011;18899;50.748;7.102;2024-02-28T00:31:14;92.47;;;39.05;;
32445;SDS011;18899;50.748;7.102;2024-02-28T00:33:39;89.60;;;38.10;;
32445;SDS011;18899;50.748;7.102;2024-02-28T00:36:05;86.00;;;37.65;;
32445;SDS011;18899;50.748;7.102;2024-02-28T00:38:31;84.80;;;36.83;;
32445;SDS011;18899;50.748;7.102;2024-02-28T00:40:56;90.53;;;38.58;;
32445;SDS011;18899;50.748;7.102;2024-02-28T00:43:22;86.68;;;36.90;;
32445;SDS011;18899;50.748;7.102;2024-02-28T00:45:47;95.45;;;38.97;;
32445;SDS011;18899;50.748;7.102;2024-02-28T00:48:13;91.70;;;39.42;;
32445;SDS011;18899;50.748;7.102;2024-02-28T00:50:39;99.35;;;40.30;;
32445;SDS011;18899;50.748;7.102;2024-02-28T00:53:04;91.80;;;38.47;;
32445;SDS011;18899;50.748;7.102;2024-02-28T00:55:30;92.68;;;39.50;;
32445;SDS011;18899;50.748;7.102;2024-02-28T00:57:55;87.75;;;38.75;;
32445;SDS011;18899;50.748;7.102;2024-02-28T01:00:21;93.22;;;38.67;;
32445;SDS011;18899;50.748;7.102;2024-02-28T01:02:47;91.88;;;39.75;;
32445;SDS011;18899;50.748;7.102;2024-02-28T01:05:12;90.80;;;39.67;;
32445;SDS011;18899;50.748;7.102;2024-02-28T01:07:38;100.85;;;41.35;;
32445;SDS011;18899;50.748;7.102;2024-02-28T01:10:03;95.50;;;39.67;;
32445;SDS011;18899;50.748;7.102;2024-02-28T01:12:29;93.60;;;39.10;;
32445;SDS011;18899;50.748;7.102;2024-02-28T01:14:55;95.03;;;40.80;;
32445;SDS011;18899;50.748;7.102;2024-02-28T01:17:20;100.85;;;41.05;;
32445;SDS011;18899;50.748;7.102;2024-02-28T01:19:46;103.95;;;43.17;;
32445;SDS011;18899;50.748;7.102;2024-02-28T01:22:12;99.00;;;42.88;;
32445;SDS011;18899;50.748;7.102;2024-02-28T01:24:38;102.15;;;42.47;;
32445;SDS011;18899;50.748;7.102;2024-02-28T01:27:03;97.60;;;41.58;;
32445;SDS011;18899;50.748;7.102;2024-02-28T01:29:29;103.90;;;41.10;;
32445;SDS011;18899;50.748;7.102;2024-02-28T01:31:54;103.10;;;41.75;;
32445;SDS011;18899;50.748;7.102;2024-02-28T01:34:20;104.05;;;42.58;;
32445;SDS011;18899;50.748;7.102;2024-02-28T01:36:46;101.95;;;41.45;;
32445;SDS011;18899;50.748;7.102;2024-02-28T01:39:11;103.53;;;42.38;;
32445;SDS011;18899;50.748;7.102;2024-02-28T01:41:37;99.25;;;40.92;;
32445;SDS011;18899;50.748;7.102;2024-02-28T01:44:02;94.13;;;42.53;;
32445;SDS011;18899;50.748;7.102;2024-02-28T01:46:28;95.00;;;40.72;;
32445;SDS011;18899;50.748;7.102;2024-02-28T01:48:54;99.88;;;41.72;;
32445;SDS011;18899;50.748;7.102;2024-02-28T01:51:21;97.50;;;42.20;;
32445;SDS011;18899;50.748;7.102;2024-02-28T01:53:48;102.60;;;42.85;;
32445;SDS011;18899;50.748;7.102;2024-02-28T01:56:17;95.57;;;42.47;;
32445;SDS011;18899;50.748;7.102;2024-02-28T01:58:45;106.65;;;43.65;;
32445;SDS011;18899;50.748;7.102;2024-02-28T02:01:13;97.35;;;42.10;;
32445;SDS011;18899;50.748;7.102;2024-02-28T02:03:39;102.93;;;42.17;;
32445;SDS011;18899;50.748;7.102;2024-02-28T02:06:05;100.25;;;41.40;;
32445;SDS011;18899;50.748;7.102;2024-02-28T02:08:31;102.53;;;42.90;;
32445;SDS011;18899;50.748;7.102;2024-02-28T02:10:57;102.82;;;42.47;;
32445;SDS011;18899;50.748;7.102;2024-02-28T02:13:23;100.40;;;42.80;;
32445;SDS011;18899;50.748;7.102;2024-02-28T02:15:48;101.90;;;41.53;;
32445;SDS011;18899;50.748;7.102;2024-02-28T02:18:14;102.60;;;42.85;;
32445;SDS011;18899;50.748;7.102;2024-02-28T02:20:41;104.13;;;44.08;;
32445;SDS011;18899;50.748;7.102;2024-02-28T02:23:11;104.07;;;42.67;;
32445;SDS011;18899;50.748;7.102;2024-02-28T02:25:46;105.05;;;43.90;;
32445;SDS011;18899;50.748;7.102;2024-02-28T02:28:13;96.00;;;40.95;;
32445;SDS011;18899;50.748;7.102;2024-02-28T02:30:39;101.18;;;41.20;;
32445;SDS011;18899;50.748;7.102;2024-02-28T02:33:06;105.10;;;43.53;;
32445;SDS011;18899;50.748;7.102;2024-02-28T02:35:33;100.40;;;41.70;;
32445;SDS011;18899;50.748;7.102;2024-02-28T02:37:59;96.80;;;39.45;;
32445;SDS011;18899;50.748;7.102;2024-02-28T02:40:25;93.65;;;39.70;;
32445;SDS011;18899;50.748;7.102;2024-02-28T02:42:50;98.28;;;40.90;;
32445;SDS011;18899;50.748;7.102;2024-02-28T02:45:16;100.80;;;39.53;;
32445;SDS011;18899;50.748;7.102;2024-02-28T02:47:41;93.47;;;39.30;;
32445;SDS011;18899;50.748;7.102;2024-02-28T02:50:08;95.55;;;39.05;;
32445;SDS011;18899;50.748;7.102;2024-02-28T02:52:34;98.63;;;40.08;;
32445;SDS011;18899;50.748;7.102;2024-02-28T02:55:00;93.50;;;39.70;;
32445;SDS011;18899;50.748;7.102;2024-02-28T02:57:26;92.28;;;38.75;;
32445;SDS011;18899;50.748;7.102;2024-02-28T02:59:51;91.65;;;39.92;;
32445;SDS011;18899;50.748;7.102;2024-02-28T03:02:17;96.22;;;39.53;;
32445;SDS011;18899;50.748;7.102;2024-02-28T03:04:42;96.50;;;41.72;;
32445;SDS011;18899;50.748;7.102;2024-02-28T03:07:08;89.82;;;39.72;;
32445;SDS011;18899;50.748;7.102;2024-02-28T03:09:33;106.45;;;39.95;;
32445;SDS011;18899;50.748;7.102;2024-02-28T03:11:59;96.85;;;39.33;;
32445;SDS011;18899;50.748;7.102;2024-02-28T03:14:25;86.22;;;37.55;;
32445;SDS011;18899;50.748;7.102;2024-02-28T03:16:52;91.20;;;36.55;;
32445;SDS011;18899;50.748;7.102;2024-02-28T03:19:21;88.60;;;37.72;;
32445;SDS011;18899;50.748;7.102;2024-02-28T03:21:47;95.93;;;38.65;;
32445;SDS011;18899;50.748;7.102;2024-02-28T03:24:12;95.25;;;40.22;;
32445;SDS011;18899;50.748;7.102;2024-02-28T03:26:38;94.38;;;38.92;;
32445;SDS011;18899;50.748;7.102;2024-02-28T03:29:03;95.60;;;37.35;;
32445;SDS011;18899;50.748;7.102;2024-02-28T03:31:29;91.47;;;38.63;;
32445;SDS011;18899;50.748;7.102;2024-02-28T03:33:54;97.25;;;36.63;;
32445;SDS011;18899;50.748;7.102;2024-02-28T03:36:20;88.95;;;37.78;;
32445;SDS011;18899;50.748;7.102;2024-02-28T03:38:45;95.40;;;38.55;;
32445;SDS011;18899;50.748;7.102;2024-02-28T03:41:11;95.80;;;39.53;;
32445;SDS011;18899;50.748;7.102;2024-02-28T03:43:37;97.65;;;40.28;;
32445;SDS011;18899;50.748;7.102;2024-02-28T03:46:02;101.93;;;39.85;;
32445;SDS011;18899;50.748;7.102;2024-02-28T03:48:28;100.72;;;40.20;;
32445;SDS011;18899;50.748;7.102;2024-02-28T03:50:53;107.60;;;41.58;;
32445;SDS011;18899;50.748;7.102;2024-02-28T03:53:19;102.82;;;41.03;;
32445;SDS011;18899;50.748;7.102;2024-02-28T03:55:44;99.68;;;40.10;;
32445;SDS011;18899;50.748;7.102;2024-02-28T03:58:10;104.25;;;40.92;;
32445;SDS011;18899;50.748;7.102;2024-02-28T04:00:36;99.03;;;40.53;;
32445;SDS011;18899;50.748;7.102;2024-02-28T04:03:02;96.05;;;38.22;;
32445;SDS011;18899;50.748;7.102;2024-02-28T04:05:29;95.93;;;39.63;;
32445;SDS011;18899;50.748;7.102;2024-02-28T04:07:55;95.93;;;38.17;;
32445;SDS011;18899;50.748;7.102;2024-02-28T04:10:20;97.78;;;39.08;;
32445;SDS011;18899;50.748;7.102;2024-02-28T04:12:46;88.65;;;36.78;;
32445;SDS011;18899;50.748;7.102;2024-02-28T04:15:12;88.15;;;36.15;;
32445;SDS011;18899;50.748;7.102;2024-02-28T04:17:38;84.43;;;35.05;;
32445;SDS011;18899;50.748;7.102;2024-02-28T04:20:07;82.90;;;34.78;;
32445;SDS011;18899;50.748;7.102;2024-02-28T04:22:36;85.13;;;36.17;;
32445;SDS011;18899;50.748;7.102;2024-02-28T04:25:03;84.90;;;34.45;;
32445;SDS011;18899;50.748;7.102;2024-02-28T04:27:33;83.03;;;35.03;;
32445;SDS011;18899;50.748;7.102;2024-02-28T04:29:59;86.95;;;36.65;;
32445;SDS011;18899;50.748;7.102;2024-02-28T04:32:25;82.50;;;34.70;;
32445;SDS011;18899;50.748;7.102;2024-02-28T04:34:50;88.18;;;34.60;;
32445;SDS011;18899;50.748;7.102;2024-02-28T04:37:16;87.55;;;36.33;;
32445;SDS011;18899;50.748;7.102;2024-02-28T04:39:42;98.00;;;38.92;;
32445;SDS011;18899;50.748;7.102;2024-02-28T04:42:07;91.22;;;36.40;;
32445;SDS011;18899;50.748;7.102;2024-02-28T04:44:33;85.70;;;36.63;;
32445;SDS011;18899;50.748;7.102;2024-02-28T04:46:58;89.82;;;36.78;;
32445;SDS011;18899;50.748;7.102;2024-02-28T04:49:24;89.43;;;37.60;;
32445;SDS011;18899;50.748;7.102;2024-02-28T04:51:49;93.32;;;36.50;;
32445;SDS011;18899;50.748;7.102;2024-02-28T04:54:15;96.88;;;40.80;;
32445;SDS011;18899;50.748;7.102;2024-02-28T04:56:41;87.00;;;37.33;;
32445;SDS011;18899;50.748;7.102;2024-02-28T04:59:07;86.03;;;37.33;;
32445;SDS011;18899;50.748;7.102;2024-02-28T05:01:33;92.25;;;36.47;;
32445;SDS011;18899;50.748;7.102;2024-02-28T05:04:00;92.55;;;37.28;;
32445;SDS011;18899;50.748;7.102;2024-02-28T05:06:25;85.03;;;37.30;;
32445;SDS011;18899;50.748;7.102;2024-02-28T05:08:51;98.22;;;38.85;;
32445;SDS011;18899;50.748;7.102;2024-02-28T05:11:16;82.10;;;35.28;;
32445;SDS011;18899;50.748;7.102;2024-02-28T05:13:42;96.80;;;37.75;;
32445;SDS011;18899;50.748;7.102;2024-02-28T05:16:14;88.47;;;36.63;;
32445;SDS011;18899;50.748;7.102;2024-02-28T05:18:40;95.13;;;38.70;;
32445;SDS011;18899;50.748;7.102;2024-02-28T05:21:05;97.38;;;38.40;;
32445;SDS011;18899;50.748;7.102;2024-02-28T05:23:31;89.32;;;37.00;;
32445;SDS011;18899;50.748;7.102;2024-02-28T05:25:57;92.03;;;36.58;;
32445;SDS011;18899;50.748;7.102;2024-02-28T05:28:23;96.15;;;37.58;;
32445;SDS011;18899;50.748;7.102;2024-02-28T05:30:48;95.60;;;39.03;;
32445;SDS011;18899;50.748;7.102;2024-02-28T05:33:14;96.05;;;36.88;;
32445;SDS011;18899;50.748;7.102;2024-02-28T05:35:40;103.05;;;40.22;;
32445;SDS011;18899;50.748;7.102;2024-02-28T05:38:05;101.50;;;38.63;;
32445;SDS011;18899;50.748;7.102;2024-02-28T05:40:31;93.35;;;37.00;;
32445;SDS011;18899;50.748;7.102;2024-02-28T05:42:57;88.13;;;36.50;;
32445;SDS011;18899;50.748;7.102;2024-02-28T05:45:22;87.47;;;34.58;;
32445;SDS011;18899;50.748;7.102;2024-02-28T05:47:48;89.20;;;35.58;;
32445;SDS011;18899;50.748;7.102;2024-02-28T05:50:13;86.93;;;35.03;;
32445;SDS011;18899;50.748;7.102;2024-02-28T05:52:41;99.55;;;39.42;;
32445;SDS011;18899;50.748;7.102;2024-02-28T05:55:07;85.68;;;36.13;;
32445;SDS011;18899;50.748;7.102;2024-02-28T05:57:33;90.40;;;37.40;;
32445;SDS011;18899;50.748;7.102;2024-02-28T05:59:59;91.80;;;37.58;;
32445;SDS011;18899;50.748;7.102;2024-02-28T06:02:24;93.65;;;37.97;;
32445;SDS011;18899;50.748;7.102;2024-02-28T06:04:50;93.07;;;39.35;;
32445;SDS011;18899;50.748;7.102;2024-02-28T06:07:15;92.95;;;39.05;;
32445;SDS011;18899;50.748;7.102;2024-02-28T06:09:41;93.50;;;38.42;;
32445;SDS011;18899;50.748;7.102;2024-02-28T06:12:06;98.50;;;39.97;;
32445;SDS011;18899;50.748;7.102;2024-02-28T06:14:32;94.43;;;39.00;;
32445;SDS011;18899;50.748;7.102;2024-02-28T06:16:58;101.68;;;39.25;;
32445;SDS011;18899;50.748;7.102;2024-02-28T06:19:23;101.00;;;42.03;;
32445;SDS011;18899;50.748;7.102;2024-02-28T06:21:49;100.25;;;41.25;;
32445;SDS011;18899;50.748;7.102;2024-02-28T06:24:15;92.88;;;38.70;;
32445;SDS011;18899;50.748;7.102;2024-02-28T06:26:40;103.28;;;39.60;;
32445;SDS011;18899;50.748;7.102;2024-02-28T06:29:08;94.47;;;37.55;;
32445;SDS011;18899;50.748;7.102;2024-02-28T06:31:33;92.35;;;36.78;;
32445;SDS011;18899;50.748;7.102;2024-02-28T06:33:59;92.18;;;37.90;;
32445;SDS011;18899;50.748;7.102;2024-02-28T06:36:24;96.40;;;39.75;;
32445;SDS011;18899;50.748;7.102;2024-02-28T06:38:50;94.38;;;37.70;;
32445;SDS011;18899;50.748;7.102;2024-02-28T06:41:15;98.25;;;39.30;;
32445;SDS011;18899;50.748;7.102;2024-02-28T06:43:41;88.47;;;38.60;;
32445;SDS011;18899;50.748;7.102;2024-02-28T06:46:07;93.38;;;38.75;;
32445;SDS011;18899;50.748;7.102;2024-02-28T06:48:33;92.70;;;36.42;;
32445;SDS011;18899;50.748;7.102;2024-02-28T06:50:58;85.38;;;35.80;;
32445;SDS011;18899;50.748;7.102;2024-02-28T06:53:24;93.68;;;38.20;;
32445;SDS011;18899;50.748;7.102;2024-02-28T06:55:51;83.70;;;36.50;;
32445;SDS011;18899;50.748;7.102;2024-02-28T06:58:16;81.93;;;34.88;;
32445;SDS011;18899;50.748;7.102;2024-02-28T07:00:42;86.60;;;36.78;;
32445;SDS011;18899;50.748;7.102;2024-02-28T07:03:08;85.72;;;36.67;;
32445;SDS011;18899;50.748;7.102;2024-02-28T07:05:33;87.10;;;37.28;;
32445;SDS011;18899;50.748;7.102;2024-02-28T07:07:59;84.88;;;36.40;;
32445;SDS011;18899;50.748;7.102;2024-02-28T07:10:25;86.05;;;35.85;;
32445;SDS011;18899;50.748;7.102;2024-02-28T07:12:51;89.80;;;36.78;;
32445;SDS011;18899;50.748;7.102;2024-02-28T07:15:16;91.70;;;37.63;;
32445;SDS011;18899;50.748;7.102;2024-02-28T07:17:45;99.32;;;37.65;;
32445;SDS011;18899;50.748;7.102;2024-02-28T07:20:11;87.97;;;36.70;;
32445;SDS011;18899;50.748;7.102;2024-02-28T07:22:37;88.82;;;35.55;;
32445;SDS011;18899;50.748;7.102;2024-02-28T07:25:03;82.85;;;35.30;;
32445;SDS011;18899;50.748;7.102;2024-02-28T07:27:29;84.28;;;35.42;;
32445;SDS011;18899;50.748;7.102;2024-02-28T07:29:55;80.60;;;34.58;;
32445;SDS011;18899;50.748;7.102;2024-02-28T07:32:21;81.10;;;34.35;;
32445;SDS011;18899;50.748;7.102;2024-02-28T07:34:46;80.10;;;33.22;;
32445;SDS011;18899;50.748;7.102;2024-02-28T07:37:12;85.82;;;34.58;;
32445;SDS011;18899;50.748;7.102;2024-02-28T07:39:37;72.90;;;33.85;;
32445;SDS011;18899;50.748;7.102;2024-02-28T07:42:03;74.88;;;33.25;;
32445;SDS011;18899;50.748;7.102;2024-02-28T07:44:29;77.50;;;34.20;;
32445;SDS011;18899;50.748;7.102;2024-02-28T07:46:56;84.68;;;36.58;;
32445;SDS011;18899;50.748;7.102;2024-02-28T07:49:25;89.38;;;36.15;;
32445;SDS011;18899;50.748;7.102;2024-02-28T07:51:51;79.35;;;35.05;;
32445;SDS011;18899;50.748;7.102;2024-02-28T07:54:16;86.97;;;35.58;;
32445;SDS011;18899;50.748;7.102;2024-02-28T07:56:43;79.97;;;34.85;;
32445;SDS011;18899;50.748;7.102;2024-02-28T07:59:09;82.70;;;32.85;;
32445;SDS011;18899;50.748;7.102;2024-02-28T08:01:34;75.00;;;32.35;;
32445;SDS011;18899;50.748;7.102;2024-02-28T08:04:00;71.95;;;33.70;;
32445;SDS011;18899;50.748;7.102;2024-02-28T08:06:26;72.55;;;33.88;;
32445;SDS011;18899;50.748;7.102;2024-02-28T08:08:52;75.60;;;34.50;;
32445;SDS011;18899;50.748;7.102;2024-02-28T08:11:17;73.88;;;33.13;;
32445;SDS011;18899;50.748;7.102;2024-02-28T08:13:44;80.28;;;33.45;;
32445;SDS011;18899;50.748;7.102;2024-02-28T08:16:09;82.75;;;35.38;;
32445;SDS011;18899;50.748;7.102;2024-02-28T08:18:35;77.53;;;34.88;;
32445;SDS011;18899;50.748;7.102;2024-02-28T08:21:01;77.07;;;33.78;;
32445;SDS011;18899;50.748;7.102;2024-02-28T08:23:28;74.55;;;33.45;;
32445;SDS011;18899;50.748;7.102;2024-02-28T08:25:56;70.53;;;32.03;;
32445;SDS011;18899;50.748;7.102;2024-02-28T08:28:22;74.35;;;33.13;;
32445;SDS011;18899;50.748;7.102;2024-02-28T08:30:48;74.43;;;32.58;;
32445;SDS011;18899;50.748;7.102;2024-02-28T08:33:14;72.15;;;31.85;;
32445;SDS011;18899;50.748;7.102;2024-02-28T08:35:39;73.65;;;33.40;;
32445;SDS011;18899;50.748;7.102;2024-02-28T08:38:05;68.35;;;30.58;;
32445;SDS011;18899;50.748;7.102;2024-02-28T08:40:30;71.57;;;33.17;;
32445;SDS011;18899;50.748;7.102;2024-02-28T08:42:56;72.82;;;32.20;;
32445;SDS011;18899;50.748;7.102;2024-02-28T08:45:24;64.00;;;32.05;;
32445;SDS011;18899;50.748;7.102;2024-02-28T08:47:50;72.38;;;32.83;;
32445;SDS011;18899;50.748;7.102;2024-02-28T08:50:16;69.63;;;32.25;;
32445;SDS011;18899;50.748;7.102;2024-02-28T08:52:41;68.80;;;32.67;;
32445;SDS011;18899;50.748;7.102;2024-02-28T08:55:07;67.60;;;31.23;;
32445;SDS011;18899;50.748;7.102;2024-02-28T08:57:33;69.72;;;30.88;;
32445;SDS011;18899;50.748;7.102;2024-02-28T08:59:59;63.03;;;31.05;;
32445;SDS011;18899;50.748;7.102;2024-02-28T09:02:24;61.10;;;29.42;;
32445;SDS011;18899;50.748;7.102;2024-02-28T09:04:50;64.35;;;29.25;;
32445;SDS011;18899;50.748;7.102;2024-02-28T09:07:18;61.75;;;28.33;;
32445;SDS011;18899;50.748;7.102;2024-02-28T09:09:44;59.38;;;28.65;;
32445;SDS011;18899;50.748;7.102;2024-02-28T09:12:10;67.25;;;30.45;;
32445;SDS011;18899;50.748;7.102;2024-02-28T09:14:36;59.72;;;28.83;;
32445;SDS011;18899;50.748;7.102;2024-02-28T09:17:01;61.92;;;28.30;;
32445;SDS011;18899;50.748;7.102;2024-02-28T09:19:33;58.95;;;27.98;;
32445;SDS011;18899;50.748;7.102;2024-02-28T09:21:59;57.55;;;28.48;;
32445;SDS011;18899;50.748;7.102;2024-02-28T09:24:24;57.28;;;27.75;;
32445;SDS011;18899;50.748;7.102;2024-02-28T09:26:51;57.25;;;28.77;;
32445;SDS011;18899;50.748;7.102;2024-02-28T09:29:16;54.85;;;27.75;;
32445;SDS011;18899;50.748;7.102;2024-02-28T09:31:42;48.20;;;25.42;;
32445;SDS011;18899;50.748;7.102;2024-02-28T09:34:07;57.95;;;27.33;;
32445;SDS011;18899;50.748;7.102;2024-02-28T09:36:43;53.90;;;26.77;;
32445;SDS011;18899;50.748;7.102;2024-02-28T09:39:13;48.22;;;25.85;;
32445;SDS011;18899;50.748;7.102;2024-02-28T09:41:42;45.88;;;25.10;;
32445;SDS011;18899;50.748;7.102;2024-02-28T09:44:07;47.13;;;25.98;;
32445;SDS011;18899;50.748;7.102;2024-02-28T09:46:33;47.17;;;26.15;;
32445;SDS011;18899;50.748;7.102;2024-02-28T09:49:06;48.10;;;27.30;;
32445;SDS011;18899;50.748;7.102;2024-02-28T09:51:35;45.92;;;25.35;;
32445;SDS011;18899;50.748;7.102;2024-02-28T09:54:04;46.30;;;25.80;;
32445;SDS011;18899;50.748;7.102;2024-02-28T09:56:30;45.03;;;25.63;;
32445;SDS011;18899;50.748;7.102;2024-02-28T09:58:57;46.55;;;25.92;;
32445;SDS011;18899;50.748;7.102;2024-02-28T10:01:23;49.45;;;25.90;;
32445;SDS011;18899;50.748;7.102;2024-02-28T10:03:51;50.25;;;26.27;;
32445;SDS011;18899;50.748;7.102;2024-02-28T10:06:18;45.60;;;25.48;;
32445;SDS011;18899;50.748;7.102;2024-02-28T10:08:45;47.05;;;25.65;;
32445;SDS011;18899;50.748;7.102;2024-02-28T10:13:48;43.35;;;24.38;;
32445;SDS011;18899;50.748;7.102;2024-02-28T10:16:14;45.58;;;26.15;;
32445;SDS011;18899;50.748;7.102;2024-02-28T10:18:41;47.00;;;24.75;;
32445;SDS011;18899;50.748;7.102;2024-02-28T10:21:07;41.42;;;24.15;;
32445;SDS011;18899;50.748;7.102;2024-02-28T10:23:33;44.60;;;24.50;;
32445;SDS011;18899;50.748;7.102;2024-02-28T10:26:00;42.92;;;25.52;;
32445;SDS011;18899;50.748;7.102;2024-02-28T10:28:26;46.55;;;26.38;;
32445;SDS011;18899;50.748;7.102;2024-02-28T10:30:52;43.95;;;26.10;;
32445;SDS011;18899;50.748;7.102;2024-02-28T10:33:19;46.92;;;26.02;;
32445;SDS011;18899;50.748;7.102;2024-02-28T10:35:44;45.88;;;26.20;;
32445;SDS011;18899;50.748;7.102;2024-02-28T10:38:13;42.50;;;24.77;;
32445;SDS011;18899;50.748;7.102;2024-02-28T10:40:39;44.65;;;26.00;;
32445;SDS011;18899;50.748;7.102;2024-02-28T10:43:07;52.20;;;25.92;;
32445;SDS011;18899;50.748;7.102;2024-02-28T10:45:35;45.45;;;25.02;;
32445;SDS011;18899;50.748;7.102;2024-02-28T10:48:03;48.55;;;26.77;;
32445;SDS011;18899;50.748;7.102;2024-02-28T10:50:29;44.28;;;24.55;;
32445;SDS011;18899;50.748;7.102;2024-02-28T10:52:56;45.85;;;24.48;;
32445;SDS011;18899;50.748;7.102;2024-02-28T10:55:27;43.65;;;24.25;;
32445;SDS011;18899;50.748;7.102;2024-02-28T10:58:03;43.03;;;23.50;;
32445;SDS011;18899;50.748;7.102;2024-02-28T11:00:32;46.47;;;24.10;;
32445;SDS011;18899;50.748;7.102;2024-02-28T11:03:00;47.67;;;24.13;;
32445;SDS011;18899;50.748;7.102;2024-02-28T11:05:38;44.38;;;23.95;;
32445;SDS011;18899;50.748;7.102;2024-02-28T11:08:11;48.83;;;24.85;;
32445;SDS011;18899;50.748;7.102;2024-02-28T11:10:45;43.92;;;23.52;;
32445;SDS011;18899;50.748;7.102;2024-02-28T11:13:21;45.72;;;23.65;;
32445;SDS011;18899;50.748;7.102;2024-02-28T11:15:47;47.30;;;23.83;;
32445;SDS011;18899;50.748;7.102;2024-02-28T11:18:13;45.95;;;23.83;;
32445;SDS011;18899;50.748;7.102;2024-02-28T11:20:38;47.42;;;23.85;;
32445;SDS011;18899;50.748;7.102;2024-02-28T11:23:07;48.38;;;24.67;;
32445;SDS011;18899;50.748;7.102;2024-02-28T11:25:34;46.35;;;23.50;;
32445;SDS011;18899;50.748;7.102;2024-02-28T11:28:00;45.90;;;23.33;;
32445;SDS011;18899;50.748;7.102;2024-02-28T11:30:25;45.42;;;24.00;;
32445;SDS011;18899;50.748;7.102;2024-02-28T11:32:51;50.22;;;23.88;;
32445;SDS011;18899;50.748;7.102;2024-02-28T11:35:18;45.28;;;24.10;;
32445;SDS011;18899;50.748;7.102;2024-02-28T11:37:47;50.28;;;24.92;;
32445;SDS011;18899;50.748;7.102;2024-02-28T11:40:12;53.30;;;24.88;;
32445;SDS011;18899;50.748;7.102;2024-02-28T11:42:39;48.72;;;24.35;;
32445;SDS011;18899;50.748;7.102;2024-02-28T11:45:04;51.42;;;25.80;;
32445;SDS011;18899;50.748;7.102;2024-02-28T11:47:34;50.28;;;24.60;;
32445;SDS011;18899;50.748;7.102;2024-02-28T11:50:03;50.90;;;25.10;;
32445;SDS011;18899;50.748;7.102;2024-02-28T11:52:36;59.55;;;25.02;;
32445;SDS011;18899;50.748;7.102;2024-02-28T11:55:02;47.33;;;23.38;;
32445;SDS011;18899;50.748;7.102;2024-02-28T11:57:28;47.22;;;24.10;;
32445;SDS011;18899;50.748;7.102;2024-02-28T11:59:55;57.97;;;23.58;;
32445;SDS011;18899;50.748;7.102;2024-02-28T12:02:22;47.25;;;23.30;;
32445;SDS011;18899;50.748;7.102;2024-02-28T12:04:50;52.15;;;24.45;;
32445;SDS011;18899;50.748;7.102;2024-02-28T12:07:17;46.05;;;23.45;;
32445;SDS011;18899;50.748;7.102;2024-02-28T12:09:43;51.88;;;24.35;;
32445;SDS011;18899;50.748;7.102;2024-02-28T12:12:09;51.72;;;23.83;;
32445;SDS011;18899;50.748;7.102;2024-02-28T12:14:37;49.72;;;23.75;;
32445;SDS011;18899;50.748;7.102;2024-02-28T12:17:08;45.38;;;23.70;;
32445;SDS011;18899;50.748;7.102;2024-02-28T12:19:35;42.63;;;21.58;;
32445;SDS011;18899;50.748;7.102;2024-02-28T12:22:00;48.00;;;23.02;;
32445;SDS011;18899;50.748;7.102;2024-02-28T12:24:26;45.28;;;22.83;;
32445;SDS011;18899;50.748;7.102;2024-02-28T12:26:51;42.83;;;21.88;;
32445;SDS011;18899;50.748;7.102;2024-02-28T12:29:17;42.67;;;21.33;;
32445;SDS011;18899;50.748;7.102;2024-02-28T12:31:43;42.85;;;21.40;;
32445;SDS011;18899;50.748;7.102;2024-02-28T12:34:09;45.25;;;22.35;;
32445;SDS011;18899;50.748;7.102;2024-02-28T12:36:34;42.60;;;20.52;;
32445;SDS011;18899;50.748;7.102;2024-02-28T12:39:00;41.60;;;21.08;;
32445;SDS011;18899;50.748;7.102;2024-02-28T12:41:28;44.75;;;22.05;;
32445;SDS011;18899;50.748;7.102;2024-02-28T12:43:54;37.53;;;20.15;;
32445;SDS011;18899;50.748;7.102;2024-02-28T12:46:19;37.03;;;19.75;;
32445;SDS011;18899;50.748;7.102;2024-02-28T12:48:45;39.67;;;20.05;;
32445;SDS011;18899;50.748;7.102;2024-02-28T12:51:31;38.92;;;20.60;;
32445;SDS011;18899;50.748;7.102;2024-02-28T12:54:00;39.38;;;20.10;;
32445;SDS011;18899;50.748;7.102;2024-02-28T12:56:27;42.28;;;20.48;;
32445;SDS011;18899;50.748;7.102;2024-02-28T12:58:53;42.17;;;20.52;;
32445;SDS011;18899;50.748;7.102;2024-02-28T13:01:18;38.63;;;19.60;;
32445;SDS011;18899;50.748;7.102;2024-02-28T13:03:44;36.75;;;19.17;;
32445;SDS011;18899;50.748;7.102;2024-02-28T13:06:10;39.88;;;19.20;;
32445;SDS011;18899;50.748;7.102;2024-02-28T13:08:35;38.15;;;18.75;;
32445;SDS011;18899;50.748;7.102;2024-02-28T13:11:01;40.10;;;19.50;;
32445;SDS011;18899;50.748;7.102;2024-02-28T13:13:26;35.67;;;18.15;;
32445;SDS011;18899;50.748;7.102;2024-02-28T13:15:52;36.90;;;18.65;;
32445;SDS011;18899;50.748;7.102;2024-02-28T13:18:17;33.03;;;17.35;;
32445;SDS011;18899;50.748;7.102;2024-02-28T13:20:44;33.97;;;17.88;;
32445;SDS011;18899;50.748;7.102;2024-02-28T13:23:09;35.15;;;17.50;;
32445;SDS011;18899;50.748;7.102;2024-02-28T13:25:35;37.50;;;17.60;;
32445;SDS011;18899;50.748;7.102;2024-02-28T13:28:00;37.80;;;16.90;;
32445;SDS011;18899;50.748;7.102;2024-02-28T13:30:26;33.42;;;17.27;;
32445;SDS011;18899;50.748;7.102;2024-02-28T13:32:51;30.35;;;15.43;;
32445;SDS011;18899;50.748;7.102;2024-02-28T13:35:17;27.67;;;14.25;;
32445;SDS011;18899;50.748;7.102;2024-02-28T13:37:42;26.65;;;14.75;;
32445;SDS011;18899;50.748;7.102;2024-02-28T13:40:08;25.38;;;13.50;;
32445;SDS011;18899;50.748;7.102;2024-02-28T13:42:36;28.02;;;14.77;;
32445;SDS011;18899;50.748;7.102;2024-02-28T13:45:03;25.60;;;13.00;;
32445;SDS011;18899;50.748;7.102;2024-02-28T13:47:32;27.52;;;14.15;;
32445;SDS011;18899;50.748;7.102;2024-02-28T13:49:58;30.08;;;12.60;;
32445;SDS011;18899;50.748;7.102;2024-02-28T13:52:24;21.65;;;11.70;;
32445;SDS011;18899;50.748;7.102;2024-02-28T13:54:49;23.63;;;11.15;;
32445;SDS011;18899;50.748;7.102;2024-02-28T13:57:17;21.20;;;11.50;;
32445;SDS011;18899;50.748;7.102;2024-02-28T13:59:42;22.90;;;11.98;;
32445;SDS011;18899;50.748;7.102;2024-02-28T14:02:08;20.58;;;10.80;;
32445;SDS011;18899;50.748;7.102;2024-02-28T14:04:35;23.08;;;11.55;;
32445;SDS011;18899;50.748;7.102;2024-02-28T14:07:00;20.98;;;11.18;;
32445;SDS011;18899;50.748;7.102;2024-02-28T14:09:28;23.70;;;11.48;;
32445;SDS011;18899;50.748;7.102;2024-02-28T14:11:53;21.92;;;11.38;;
32445;SDS011;18899;50.748;7.102;2024-02-28T14:14:19;20.77;;;10.70;;
32445;SDS011;18899;50.748;7.102;2024-02-28T14:16:44;20.70;;;10.98;;
32445;SDS011;18899;50.748;7.102;2024-02-28T14:19:10;24.42;;;11.63;;